Airfield :
LOGIN :

Register | Disclaimer

   EN    FR    IT 

 










Legend :    VFR   Marginal VFR   IFR   Intensive IFR   Very Intensive IFR
Visi :
Ceiling :
>= 8 km
>= 3000ft
5 to 8 km
1000 to 3000 ft
1500m to 5 km
500 to 1000 ft
800 to 1500m
200 to 500 ft
< 800m
< 200 ft
Symbols :   Thunderstorms  Fog  Heavy snow  Heavy precipitations  Wind > 20 kt
SIGMETs :     Misc.  Thunderstorms  Icing  Turbulence  Mountain Waves  Volcanic Ashes






- Airport Elevation : 490 ft
- IATA code : CHQ


LGSA - Ioannis Daskalogiannis

CURRENT METAR :
  • 231950Z 00000KT 9999 FEW025 SCT080 09/08 Q1015

EXPIRED METARs :
  • 231920Z 00000KT 9999 FEW025 SCT080 09/07 Q1016
  • 231850Z 00000KT 9999 FEW025 SCT080 10/08 Q1016
  • 231820Z 00000KT 9999 FEW025 SCT080 10/08 Q1016
  • 231750Z 00000KT 9999 FEW025 SCT080 10/08 Q1016
  • 231720Z 00000KT 9999 FEW025 BKN080 10/09 Q1016

TAF TAF LGSA
Valid from the 23 at 18:00 until the 24 at 18:00 UTC


231700Z 2318/2418 20012KT 9999 SCT025 BKN080
TEMPO 2318/2409 22016G26KT
PROB40
TEMPO 2320/2409 5000 RA FEW018TCU BKN025 BKN080
PROB40
TEMPO 2323/2406 4000 TSRA SCT015 FEW018CB BKN025 BKN070



MET'MAP, your aeronautical weather chart ! - Copyright ORBIFLY December 2007 - Disclaimer

ORBIFLY MET'MAP TEAM :

Programming & Development : Alexandra Zaïnal
Concept & original design : Baudouin d'Aumeries
Assistance for programming : Marc-Olivier Méhu
Technical & hardware support : Manuel Goepfert

Contact : metmap@orbifly.com




SOURCES & CREDITS :

   NOAA